Terminal Aerodrome Forecast
Issued by NWS Twin Cities, MN

Home | Current Version | Previous Version | Text Only | Print | Product List | Glossary On
Versions: 1 2 3 4 5 6 7 8 9 10 11 12 13 14 15 16
805
FTUS43 KMPX 210441 AAA
TAFSTC
TAF AMD
KSTC 210441Z 2105/2124 16017G26KT P6SM BKN100 WS020/18050KT
     FM211100 17015G22KT P6SM VCSH OVC045
     FM211400 17014G21KT P6SM OVC025
     FM211800 18012KT 6SM -RA VCTS OVC015CB
     FM212100 25010KT 6SM -SHRA OVC020=

USA.gov is the U.S. government's official web portal to all federal, state and local government web resources and services.